Flight Track Log - Related Links

Times and Time Zones

All times are in EDT time to prevent confusion due to time zone crossing. See the DAL4165 flight status page for this flight to view local times or setup timezone preferences in your user account.


Time Position Orientation Groundspeed Altitude Reporting Facility
EDT Latitude Longitude Course Direction KTS MPH feet Rate Location/Type
Mon 07:17:56 PM 35.3769 -97.5944 90° East 151 174 1,700  Level Fort Worth Center
Mon 07:19:06 PM 35.3603 -97.5358 109° East 180 207 3,600 1,846 Climbing Fort Worth Center
Mon 07:20:06 PM 35.3625 -97.4517 88° East 210 242 5,700 2,700 Climbing Fort Worth Center
Mon 07:21:00 PM 35.4000 -97.0713 90° East  Level FlightAware Approximate
Mon 07:21:06 PM 35.3625 -97.3372 90° East 270 311 9,000  Level Fort Worth Center
Mon 07:22:00 PM 35.4000 -96.9389 90° East  Level FlightAware Approximate
Mon 07:22:06 PM 35.3686 -97.2303 86° East 298 343 10,700  Level Fort Worth Center
Mon 07:23:00 PM 35.4000 -96.8064 90° East  Level FlightAware Approximate
Mon 07:23:06 PM 35.3683 -97.0981 90° East 337 388 12,000  Level Fort Worth Center
Mon 07:24:06 PM 35.3700 -96.9578 89° East 383 441 14,300 2,200 Climbing Fort Worth Center
Mon 07:25:06 PM 35.3736 -96.8153 88° East 410 472 16,400 2,000 Climbing Fort Worth Center
Mon 07:27:06 PM 35.3781 -96.5200 89° East 426 490 20,300 1,867 Climbing Fort Worth Center
Mon 07:28:06 PM 35.3789 -96.3697 90° East 431 496 22,000 1,500 Climbing Fort Worth Center
Mon 07:29:06 PM 35.3817 -96.2169 89° East 441 507 23,300 1,250 Climbing Fort Worth Center
Mon 07:30:06 PM 35.3803 -96.0592 91° East 446 513 24,500 1,200 Climbing Fort Worth Center
Mon 07:31:06 PM 35.3825 -95.8986 89° East 458 527 25,700 1,404 Climbing Fort Worth Center
Mon 07:32:57 PM 35.3872 -95.6008 89° East 461 531 28,500 1,579 Climbing Memphis Center
Mon 07:33:57 PM 35.3875 -95.4428 90° East 461 531 30,200 1,650 Climbing Memphis Center
Mon 07:34:57 PM 35.3894 -95.2903 89° East 461 531 31,800 1,400 Climbing Memphis Center
Mon 07:35:57 PM 35.3894 -95.1322 90° East 461 531 33,000 600 Climbing Memphis Center
Mon 07:36:57 PM 35.3892 -94.9744 90° East 461 531 33,000  Level Memphis Center
Mon 07:37:57 PM 35.3869 -94.8086 91° East 471 542 33,000  Level Memphis Center
Mon 07:38:57 PM 35.3883 -94.6458 89° East 477 549 33,000  Level Memphis Center
Mon 07:39:57 PM 35.3897 -94.4828 89° East 477 549 33,000  Level Memphis Center
Mon 07:40:57 PM 35.3889 -94.3200 90° East 477 549 33,000  Level Memphis Center
Mon 07:41:57 PM 35.3814 -94.1592 93° East 477 549 33,000  Level Memphis Center
Mon 07:42:57 PM 35.3653 -93.9956 97° East 477 549 33,000  Level Memphis Center
Mon 07:43:57 PM 35.3575 -93.8322 93° East 483 556 33,000  Level Memphis Center
Mon 07:44:57 PM 35.3347 -93.6733 100° East 483 556 33,000  Level Memphis Center
Mon 07:45:57 PM 35.2908 -93.5139 109° East 483 556 33,000  Level Memphis Center
Mon 07:46:57 PM 35.2564 -93.3931 109° East 483 556 33,000  Level Memphis Center
Mon 07:47:57 PM 35.2269 -93.2244 102° East 471 542 33,000  Level Memphis Center
Mon 07:48:57 PM 35.2075 -93.0611 98° East 471 542 33,000  Level Memphis Center
Mon 07:49:57 PM 35.2006 -92.9006 93° East 479 551 33,000  Level Memphis Center
Mon 07:50:57 PM 35.1892 -92.7303 95° East 485 558 33,000  Level Memphis Center
Mon 07:51:57 PM 35.1800 -92.5469 93° East 492 566 33,000  Level Memphis Center
Mon 07:52:57 PM 35.1703 -92.3867 94° East 487 560 33,000  Level Memphis Center
Mon 07:53:57 PM 35.1644 -92.2367 93° East 482 555 33,000  Level Memphis Center
Mon 07:54:57 PM 35.1542 -92.0714 94° East 482 555 33,000  Level Memphis Center
Mon 07:55:57 PM 35.1439 -91.9111 94° East 482 555 33,000  Level Memphis Center
Mon 07:56:57 PM 35.1353 -91.7461 94° East 482 555 33,000  Level Memphis Center
Mon 07:57:57 PM 35.1244 -91.5833 95° East 482 555 33,000  Level Memphis Center
Mon 07:58:57 PM 35.1156 -91.4233 94° East 482 555 33,000  Level Memphis Center
Mon 07:59:57 PM 35.1022 -91.2456 95° East 477 549 33,000  Level Memphis Center
Mon 08:00:57 PM 35.0950 -91.0856 93° East 483 556 33,000  Level Memphis Center
Mon 08:01:57 PM 35.0833 -90.9231 95° East 476 548 33,000  Level Memphis Center
Mon 08:02:57 PM 35.0736 -90.7581 94° East 482 555 33,000  Level Memphis Center
Mon 08:03:57 PM 35.0614 -90.6158 96° East 482 555 33,000  Level Memphis Center
Mon 08:04:57 PM 35.0492 -90.4508 95° East 482 555 33,000  Level Memphis Center
Mon 08:05:58 PM 35.0408 -90.2886 94° East 477 549 33,000  Level Memphis Center
Mon 08:06:57 PM 35.0281 -90.1289 96° East 482 555 33,000  Level Memphis Center
Mon 08:07:57 PM 35.0150 -89.9667 96° East 477 549 33,000  Level Memphis Center
Mon 08:08:57 PM 34.9936 -89.7867 98° East 484 557 33,000  Level Memphis Center
Mon 08:09:57 PM 34.9675 -89.6197 101° East 489 563 33,000  Level Memphis Center
Mon 08:10:57 PM 34.9394 -89.4603 102° East 484 557 33,000  Level Memphis Center
Mon 08:11:57 PM 34.9153 -89.3036 101° East 479 551 33,000  Level Memphis Center
Mon 08:12:58 PM 34.8931 -89.1619 101° East 474 545 33,000  Level Memphis Center
Mon 08:13:57 PM 34.8706 -89.0056 100° East 474 545 33,000  Level Memphis Center
Mon 08:14:57 PM 34.8458 -88.8439 101° East 469 540 33,000  Level Memphis Center
Mon 08:15:57 PM 34.8208 -88.6875 101° East 469 540 33,000  Level Memphis Center
Mon 08:16:57 PM 34.7956 -88.5311 101° East 469 540 33,000  Level Memphis Center
Mon 08:17:57 PM 34.7706 -88.3825 102° East 458 527 33,000  Level Memphis Center
Mon 08:18:57 PM 34.7469 -88.2264 100° East 458 527 33,000  Level Memphis Center
Mon 08:19:58 PM 34.7167 -88.0453 101° East 480 552 33,000  Level Memphis Center
Mon 08:20:57 PM 34.6928 -87.8894 101° East 485 558 33,000  Level Memphis Center
Mon 08:21:57 PM 34.6686 -87.7336 101° East 472 543 33,000  Level Memphis Center
Mon 08:24:07 PM 34.6167 -87.3983 101° East 462 532 33,000  Level Atlanta Center
Mon 08:25:07 PM 34.5856 -87.2381 103° East 467 537 33,000  Level Atlanta Center
Mon 08:26:07 PM 34.5539 -87.0856 104° East 472 543 33,000  Level Atlanta Center
Mon 08:27:07 PM 34.5242 -86.9306 103° East 472 543 33,000  Level Atlanta Center
Mon 08:28:07 PM 34.4944 -86.7758 103° East 472 543 33,000  Level Atlanta Center
Mon 08:29:07 PM 34.4642 -86.6211 103° East 472 543 33,000  Level Atlanta Center
Mon 08:30:07 PM 34.4339 -86.4692 104° East 472 543 33,000  Level Atlanta Center
Mon 08:31:07 PM 34.4036 -86.3172 104° East 472 543 33,000 -100 Level Atlanta Center
Mon 08:32:07 PM 34.3728 -86.1603 103° East 472 543 32,800 -1,350 Descending Atlanta Center
Mon 08:33:07 PM 34.3442 -86.0086 103° East 472 543 30,300 -2,500 Descending Atlanta Center
Mon 08:34:07 PM 34.3131 -85.8569 104° East 472 543 27,800 -2,400 Descending Atlanta Center
Mon 08:35:07 PM 34.2878 -85.7258 103° East 459 528 25,500 -2,400 Descending Atlanta Center
Mon 08:36:07 PM 34.2564 -85.5769 104° East 454 522 23,000 -2,500 Descending Atlanta Center
Mon 08:37:07 PM 34.2289 -85.4308 103° East 454 522 20,500 -2,550 Descending Atlanta Center
Mon 08:38:07 PM 34.1992 -85.2894 104° East 448 516 17,900 -2,550 Descending Atlanta Center
Mon 08:39:07 PM 34.1692 -85.1511 105° East 430 495 15,400 -1,950 Descending Atlanta Center
Mon 08:40:07 PM 34.1011 -85.0422 127° Southeast 404 465 14,000 -1,000 Descending Atlanta Center
Mon 08:41:07 PM 34.0247 -84.9436 133° Southeast 404 465 13,400 -800 Descending Atlanta Center
Mon 08:42:07 PM 33.9419 -84.8375 133° Southeast 399 459 12,400 -700 Descending Atlanta Center
Mon 08:43:07 PM 33.8694 -84.7444 133° Southeast 399 459 12,000 -231 Descending Atlanta Center
Mon 08:43:51 PM 33.8333 -84.6833 125° Southeast 288 331 12,000  Level Atlanta TRACON
Mon 08:44:51 PM 33.7833 -84.6333 140° Southeast 224 258 12,000 -144 Level Atlanta TRACON
Mon 08:45:56 PM 33.7333 -84.5667 132° Southeast 219 252 11,700 -800 Descending Atlanta TRACON
Mon 08:46:51 PM 33.7333 -84.5000 90° East 216 249 10,400 -1,513 Descending Atlanta TRACON
Mon 08:47:51 PM 33.7333 -84.4333 90° East 221 254 8,800 -1,550 Descending Atlanta TRACON
Mon 08:48:51 PM 33.7333 -84.3667 90° East 205 236 7,300 -1,900 Descending Atlanta TRACON
Mon 08:49:51 PM 33.7333 -84.3000 90° East 205 236 5,000 -1,950 Descending Atlanta TRACON
Mon 08:50:51 PM 33.7000 -84.2500 129° Southeast 198 228 3,400 -1,600 Descending Atlanta TRACON

Login

Don't have an account? Register now (free) for customized features, flight alerts, and more!